Time;durP1;ratioP1;P1;durP2;ratioP2;P2;SDS_P1;SDS_P2;PMS_P1;PMS_P2;Temp;Humidity;BMP_temperature;BMP_pressure;BME280_temperature;BME280_humidity;BME280_pressure;Samples;Min_cycle;Max_cycle;Signal;HPM_P1;HPM_P2
2023/11/06 00:01:16;;;;;;;3.00;1.90;;;;;;;10.29;96.00;97645.60;130538;1264;107346;-77
2023/11/06 00:04:22;;;;;;;4.40;2.50;;;;;;;10.32;96.13;97650.55;130545;1262;106758;-77
2023/11/06 00:07:27;;;;;;;3.50;2.50;;;;;;;10.35;95.96;97653.86;130472;1260;107701;-76
2023/11/06 00:10:33;;;;;;;4.70;2.50;;;;;;;10.36;95.53;97662.23;130535;1258;107178;-79
2023/11/06 00:13:38;;;;;;;4.00;2.40;;;;;;;10.34;95.86;97665.02;130672;1259;106777;-77
2023/11/06 00:16:45;;;;;;;3.10;1.90;;;;;;;10.33;95.86;97672.20;130463;1262;108692;-76
2023/11/06 00:19:51;;;;;;;2.70;1.50;;;;;;;10.33;96.08;97678.85;130585;1262;108897;-76
2023/11/06 00:22:57;;;;;;;4.90;2.30;;;;;;;10.34;96.19;97689.55;130538;1261;108022;-77
2023/11/06 00:26:03;;;;;;;3.60;2.30;;;;;;;10.35;96.02;97691.11;130453;1260;107447;-79
2023/11/06 00:29:08;;;;;;;3.90;2.30;;;;;;;10.39;95.93;97699.86;130433;1260;107479;-79
2023/11/06 00:32:14;;;;;;;3.10;2.00;;;;;;;10.39;96.01;97701.73;130815;1256;108785;-79
2023/11/06 00:35:20;;;;;;;3.30;1.90;;;;;;;10.39;96.25;97705.14;130477;1260;106622;-79
2023/11/06 00:38:26;;;;;;;4.60;2.00;;;;;;;10.40;96.11;97705.96;130466;1260;106830;-77
2023/11/06 00:41:31;;;;;;;3.30;2.10;;;;;;;10.40;95.92;97707.96;130445;1258;108423;-77
2023/11/06 00:44:37;;;;;;;3.00;1.90;;;;;;;10.43;96.25;97718.33;130431;1262;107976;-76
2023/11/06 00:47:43;;;;;;;2.60;1.90;;;;;;;10.42;96.19;97720.23;130505;1262;107684;-77
2023/11/06 00:50:49;;;;;;;2.80;1.70;;;;;;;10.42;96.34;97732.15;130581;1260;106692;-77
2023/11/06 00:53:54;;;;;;;3.30;1.80;;;;;;;10.41;96.48;97739.33;130496;1256;107445;-76
2023/11/06 00:57:01;;;;;;;3.50;2.00;;;;;;;10.42;96.27;97742.08;130578;1261;106996;-77
2023/11/06 01:00:10;;;;;;;2.60;1.90;;;;;;;10.45;96.08;97744.65;130563;1260;106576;-77
2023/11/06 01:03:16;;;;;;;3.00;1.90;;;;;;;10.46;96.43;97744.61;130505;1256;107529;-77
2023/11/06 01:06:21;;;;;;;2.50;1.80;;;;;;;10.44;96.17;97746.00;130540;1256;108527;-77
2023/11/06 01:09:29;;;;;;;3.20;1.90;;;;;;;10.44;96.18;97745.48;130550;1256;108304;-77
2023/11/06 01:12:35;;;;;;;3.50;1.60;;;;;;;10.45;95.97;97750.72;130805;1260;106352;-76
2023/11/06 01:15:42;;;;;;;2.90;1.90;;;;;;;10.46;96.25;97755.39;130539;1261;106511;-77
2023/11/06 01:18:48;;;;;;;2.60;1.70;;;;;;;10.46;96.34;97763.92;130581;1260;108580;-76
2023/11/06 01:21:54;;;;;;;2.50;1.80;;;;;;;10.45;96.30;97762.23;130567;1260;107638;-77
2023/11/06 01:25:00;;;;;;;2.40;1.50;;;;;;;10.46;96.32;97769.78;130474;1258;106753;-77
2023/11/06 01:28:06;;;;;;;3.90;1.80;;;;;;;10.48;96.48;97767.77;130558;1260;106369;-77
2023/11/06 01:31:12;;;;;;;3.80;2.00;;;;;;;10.48;96.18;97768.38;130561;1262;108080;-77
2023/11/06 01:34:17;;;;;;;2.80;1.80;;;;;;;10.49;96.31;97774.88;130552;1260;107438;-77
2023/11/06 01:37:23;;;;;;;3.70;2.00;;;;;;;10.47;96.57;97783.44;130478;1261;107711;-77
2023/11/06 01:40:30;;;;;;;3.70;2.00;;;;;;;10.48;96.29;97787.77;130518;1262;107839;-77
2023/11/06 01:43:36;;;;;;;3.40;2.00;;;;;;;10.50;96.49;97787.68;130574;1262;106588;-77
2023/11/06 01:46:42;;;;;;;3.10;1.70;;;;;;;10.52;96.13;97792.34;130561;1256;107047;-79
2023/11/06 01:49:47;;;;;;;3.30;1.80;;;;;;;10.52;96.27;97795.58;130602;1256;108631;-77
2023/11/06 01:52:53;;;;;;;4.30;1.80;;;;;;;10.51;96.08;97801.80;130665;1263;107187;-79
2023/11/06 01:56:00;;;;;;;3.70;1.80;;;;;;;10.51;96.23;97805.69;130606;1262;106324;-78
2023/11/06 01:59:06;;;;;;;3.50;2.00;;;;;;;10.52;96.17;97808.39;130509;1257;107641;-75
2023/11/06 02:02:12;;;;;;;2.90;1.80;;;;;;;10.53;95.96;97815.69;130392;1262;107777;-77
2023/11/06 02:05:20;;;;;;;3.80;2.30;;;;;;;10.55;96.29;97820.27;130556;1256;106486;-77
2023/11/06 02:08:26;;;;;;;3.20;1.80;;;;;;;10.54;96.00;97826.22;130630;1261;108398;-77
2023/11/06 02:11:33;;;;;;;2.20;1.50;;;;;;;10.53;96.05;97835.83;130645;1260;107901;-77
2023/11/06 02:14:52;;;;;;;2.80;1.50;;;;;;;10.52;95.94;97841.56;130519;1262;106250;-76
2023/11/06 02:17:58;;;;;;;3.30;2.10;;;;;;;10.53;96.17;97850.07;130636;1262;108618;-76
2023/11/06 02:21:05;;;;;;;2.80;1.90;;;;;;;10.54;96.05;97850.17;130579;1262;107702;-77
2023/11/06 02:24:11;;;;;;;2.30;1.70;;;;;;;10.55;95.79;97855.71;130676;1256;108755;-77
2023/11/06 02:27:17;;;;;;;2.40;1.60;;;;;;;10.54;95.73;97864.08;130564;1261;108884;-76
2023/11/06 02:30:23;;;;;;;3.40;1.50;;;;;;;10.52;95.80;97865.48;130684;1262;107080;-76
2023/11/06 02:33:29;;;;;;;2.50;1.80;;;;;;;10.51;95.70;97871.23;130669;1262;106454;-79
2023/11/06 02:36:34;;;;;;;2.70;1.90;;;;;;;10.53;95.59;97876.73;130663;1256;108093;-77
2023/11/06 02:39:40;;;;;;;3.00;1.90;;;;;;;10.55;95.65;97884.95;130543;1262;106493;-77
2023/11/06 02:42:45;;;;;;;3.70;1.90;;;;;;;10.54;95.32;97887.27;130513;1260;108630;-77
2023/11/06 02:45:52;;;;;;;2.10;1.60;;;;;;;10.49;95.25;97891.33;130517;1270;107784;-77
2023/11/06 02:48:58;;;;;;;2.30;1.30;;;;;;;10.45;95.37;97897.43;130611;1257;108547;-77
2023/11/06 02:52:04;;;;;;;3.20;1.80;;;;;;;10.44;95.52;97905.10;130542;1262;106903;-77
2023/11/06 02:55:11;;;;;;;3.20;1.70;;;;;;;10.45;95.55;97908.02;130566;1259;106772;-76
2023/11/06 02:58:16;;;;;;;1.70;1.30;;;;;;;10.47;95.81;97914.20;130543;1259;106589;-76
2023/11/06 03:01:22;;;;;;;2.90;1.70;;;;;;;10.48;95.39;97910.83;130569;1260;107740;-77
2023/11/06 03:04:27;;;;;;;1.90;1.40;;;;;;;10.45;95.45;97918.23;130596;1260;107539;-76
2023/11/06 03:07:33;;;;;;;1.90;1.40;;;;;;;10.37;95.16;97922.52;130539;1262;107004;-77
2023/11/06 03:10:39;;;;;;;2.10;1.40;;;;;;;10.37;95.69;97927.22;130748;1256;108075;-78
2023/11/06 03:13:45;;;;;;;1.80;1.40;;;;;;;10.39;95.20;97928.85;130618;1262;108259;-77
2023/11/06 03:16:50;;;;;;;2.40;1.50;;;;;;;10.39;94.99;97928.82;130669;1256;108632;-77
2023/11/06 03:19:56;;;;;;;2.10;1.40;;;;;;;10.37;94.95;97941.09;130547;1260;107681;-78
2023/11/06 03:23:01;;;;;;;2.20;1.40;;;;;;;10.34;95.16;97947.20;130383;1262;107599;-79
2023/11/06 03:26:08;;;;;;;2.10;1.40;;;;;;;10.31;95.23;97944.75;130681;1258;106600;-79
2023/11/06 03:29:14;;;;;;;3.40;1.40;;;;;;;10.31;94.96;97947.66;131050;1260;107380;-77
2023/11/06 03:32:20;;;;;;;2.70;1.40;;;;;;;10.31;94.73;97950.73;130536;1261;107697;-77
2023/11/06 03:35:26;;;;;;;2.30;1.30;;;;;;;10.29;94.90;97951.73;130607;1257;108630;-76
2023/11/06 03:38:31;;;;;;;1.60;1.10;;;;;;;10.26;94.31;97956.42;130508;1261;107313;-76
2023/11/06 03:41:38;;;;;;;2.80;1.50;;;;;;;10.19;94.47;97964.84;130468;1262;107313;-75
2023/11/06 03:44:44;;;;;;;1.60;1.00;;;;;;;10.14;94.41;97971.19;130760;1257;107410;-74
2023/11/06 03:47:50;;;;;;;2.70;1.60;;;;;;;10.13;94.39;97973.65;130643;1261;107957;-74
2023/11/06 03:50:55;;;;;;;1.50;1.00;;;;;;;10.13;94.24;97982.50;130614;1260;108670;-76
2023/11/06 03:54:01;;;;;;;3.70;1.20;;;;;;;10.14;94.08;97983.82;130557;1257;106440;-75
2023/11/06 03:57:07;;;;;;;7.50;6.00;;;;;;;10.12;93.75;97991.04;130811;1256;107415;-76
2023/11/06 04:00:14;;;;;;;58.20;22.90;;;;;;;10.05;93.55;97997.92;130497;1257;108710;-75
2023/11/06 04:03:20;;;;;;;4.30;1.90;;;;;;;10.00;93.96;97998.05;130616;1262;106630;-75
2023/11/06 04:06:25;;;;;;;8.50;5.80;;;;;;;9.98;93.63;98007.39;130553;1258;107896;-76
2023/11/06 04:09:32;;;;;;;10.30;5.20;;;;;;;9.96;93.46;98007.47;130547;1262;107954;-76
2023/11/06 04:12:38;;;;;;;11.80;6.80;;;;;;;9.96;93.69;98017.23;130491;1262;107691;-75
2023/11/06 04:15:44;;;;;;;27.00;16.60;;;;;;;9.96;93.35;98021.44;130555;1261;107712;-75
2023/11/06 04:18:50;;;;;;;9.50;6.30;;;;;;;9.96;93.69;98022.96;130499;1262;107746;-76
2023/11/06 04:21:56;;;;;;;3.80;2.60;;;;;;;9.95;93.53;98031.64;130534;1262;107422;-76
2023/11/06 04:25:02;;;;;;;23.20;16.10;;;;;;;9.96;92.95;98036.48;130567;1257;108377;-75
2023/11/06 04:28:08;;;;;;;29.20;16.30;;;;;;;9.99;93.26;98041.20;130597;1262;106564;-75
2023/11/06 04:31:15;;;;;;;3.30;2.10;;;;;;;10.02;93.04;98040.80;130552;1259;107872;-75
2023/11/06 04:34:20;;;;;;;5.50;4.50;;;;;;;10.02;92.83;98045.34;130625;1260;106508;-75
2023/11/06 04:37:26;;;;;;;53.70;24.90;;;;;;;9.99;92.73;98048.79;130514;1263;107453;-75
2023/11/06 04:40:31;;;;;;;126.30;35.00;;;;;;;9.98;92.45;98051.04;130561;1260;106791;-75
2023/11/06 04:43:37;;;;;;;55.20;29.20;;;;;;;9.99;92.04;98056.05;130630;1260;108878;-75
2023/11/06 04:46:43;;;;;;;7.10;3.70;;;;;;;10.03;92.42;98060.02;130530;1256;107459;-75
2023/11/06 04:49:48;;;;;;;6.50;4.10;;;;;;;10.07;92.40;98066.16;130672;1256;106790;-75
2023/11/06 04:52:54;;;;;;;9.10;7.20;;;;;;;10.09;92.36;98071.46;130527;1259;107135;-74
2023/11/06 04:55:59;;;;;;;3.80;2.30;;;;;;;10.06;92.02;98077.36;130522;1262;108364;-74
2023/11/06 04:59:05;;;;;;;13.90;9.90;;;;;;;10.05;92.15;98084.29;130450;1262;108777;-74
2023/11/06 05:02:11;;;;;;;33.50;16.90;;;;;;;10.07;92.33;98088.84;130553;1260;108514;-76
2023/11/06 05:05:16;;;;;;;12.00;6.80;;;;;;;10.11;92.26;98099.88;130547;1262;107181;-77
2023/11/06 05:08:22;;;;;;;9.70;7.60;;;;;;;10.16;91.83;98098.86;130592;1260;107609;-77
2023/11/06 05:11:27;;;;;;;11.90;5.80;;;;;;;10.18;91.93;98109.52;130591;1260;108689;-75
2023/11/06 05:14:33;;;;;;;152.20;36.90;;;;;;;10.17;91.60;98108.04;130522;1260;107721;-75
2023/11/06 05:17:38;;;;;;;10.50;5.90;;;;;;;10.17;91.26;98118.16;130568;1271;107687;-75
2023/11/06 05:20:44;;;;;;;5.20;2.00;;;;;;;10.18;91.22;98124.03;130608;1259;109322;-75
2023/11/06 05:23:50;;;;;;;4.90;3.30;;;;;;;10.23;90.74;98130.36;130506;1262;108689;-75
2023/11/06 05:26:55;;;;;;;7.70;4.90;;;;;;;10.26;90.56;98133.23;130594;1260;108661;-75
2023/11/06 05:30:01;;;;;;;1.90;1.50;;;;;;;10.27;90.50;98141.64;130537;1262;108168;-75
2023/11/06 05:33:07;;;;;;;6.40;3.80;;;;;;;10.25;90.04;98152.42;130633;1260;106355;-75
2023/11/06 05:36:15;;;;;;;5.50;3.50;;;;;;;10.23;89.46;98162.30;130574;1261;106646;-75
2023/11/06 05:39:21;;;;;;;6.10;3.50;;;;;;;10.21;88.95;98168.53;130557;1262;106638;-75
2023/11/06 05:42:26;;;;;;;9.80;6.50;;;;;;;10.18;89.43;98179.55;130463;1262;106852;-75
2023/11/06 05:45:32;;;;;;;42.70;17.60;;;;;;;10.18;89.00;98186.51;130526;1267;107594;-75
2023/11/06 05:48:37;;;;;;;41.00;14.00;;;;;;;10.20;88.60;98191.73;130600;1263;108726;-74
2023/11/06 05:51:45;;;;;;;41.00;14.90;;;;;;;10.23;88.63;98195.17;130619;1262;107728;-75
2023/11/06 05:54:52;;;;;;;37.60;15.10;;;;;;;10.28;87.78;98200.33;130597;1262;106947;-75
2023/11/06 05:57:57;;;;;;;37.20;12.90;;;;;;;10.30;88.10;98209.65;130557;1262;108625;-75
2023/11/06 06:01:04;;;;;;;16.50;11.70;;;;;;;10.31;87.77;98217.04;130472;1262;107855;-75
2023/11/06 06:04:10;;;;;;;89.40;44.60;;;;;;;10.30;87.62;98224.95;130610;1256;107898;-75
2023/11/06 06:07:15;;;;;;;78.40;30.30;;;;;;;10.30;87.64;98232.61;130508;1270;107766;-75
2023/11/06 06:10:21;;;;;;;56.00;26.60;;;;;;;10.33;87.42;98238.76;130606;1262;108627;-74
2023/11/06 06:13:27;;;;;;;21.90;11.50;;;;;;;10.38;87.14;98244.16;130572;1260;108176;-74
2023/11/06 06:16:34;;;;;;;30.40;18.50;;;;;;;10.42;86.63;98256.58;130564;1261;107664;-74
2023/11/06 06:19:39;;;;;;;80.70;42.60;;;;;;;10.45;87.11;98261.21;130582;1261;107831;-75
2023/11/06 06:22:46;;;;;;;18.50;8.50;;;;;;;10.47;86.82;98269.59;130531;1256;108709;-75
2023/11/06 06:25:51;;;;;;;5.70;2.80;;;;;;;10.48;86.18;98268.77;130677;1259;107894;-75
2023/11/06 06:28:57;;;;;;;7.90;5.30;;;;;;;10.48;86.29;98280.79;130560;1263;108791;-76
2023/11/06 06:32:03;;;;;;;9.20;5.70;;;;;;;10.46;86.66;98285.91;130706;1262;107811;-75
2023/11/06 06:35:10;;;;;;;4.00;2.80;;;;;;;10.48;85.58;98285.52;130682;1261;108570;-74
2023/11/06 06:38:15;;;;;;;4.00;2.70;;;;;;;10.53;85.81;98295.87;130457;1260;106906;-75
2023/11/06 06:41:21;;;;;;;40.70;21.20;;;;;;;10.59;84.86;98302.27;130665;1257;106537;-74
2023/11/06 06:44:27;;;;;;;3.20;1.80;;;;;;;10.65;85.00;98303.98;130666;1261;108709;-74
2023/11/06 06:47:32;;;;;;;4.80;3.00;;;;;;;10.68;85.12;98315.51;130798;1262;107705;-74
2023/11/06 06:50:38;;;;;;;7.80;4.00;;;;;;;10.70;84.66;98316.83;130531;1262;106526;-74
2023/11/06 06:53:45;;;;;;;15.50;5.50;;;;;;;10.71;84.68;98327.54;130579;1261;107196;-76
2023/11/06 06:56:54;;;;;;;32.30;16.50;;;;;;;10.70;84.79;98336.69;132041;1257;106767;-75
2023/11/06 07:00:00;;;;;;;25.90;7.30;;;;;;;10.68;84.22;98342.34;134617;1257;108666;-76
2023/11/06 07:03:06;;;;;;;21.50;6.20;;;;;;;10.68;84.14;98347.14;134675;1256;108688;-76
2023/11/06 07:06:14;;;;;;;22.50;5.50;;;;;;;10.70;84.41;98346.83;134636;1256;108727;-76
2023/11/06 07:09:20;;;;;;;20.20;10.60;;;;;;;10.76;84.40;98353.33;134661;1256;107207;-76
2023/11/06 07:12:26;;;;;;;3.90;1.70;;;;;;;10.83;83.65;98358.07;132394;1260;108558;-76
2023/11/06 07:15:31;;;;;;;18.80;8.80;;;;;;;10.88;83.79;98359.77;130472;1260;109072;-75
2023/11/06 07:18:37;;;;;;;36.00;15.50;;;;;;;10.91;83.88;98369.18;130497;1262;106694;-75
2023/11/06 07:21:43;;;;;;;13.00;6.60;;;;;;;10.91;83.80;98371.40;130489;1258;107671;-75
2023/11/06 07:24:48;;;;;;;8.00;4.90;;;;;;;10.92;83.42;98377.44;130534;1262;106761;-76
2023/11/06 07:27:54;;;;;;;7.40;4.20;;;;;;;10.89;83.77;98387.88;130482;1263;108424;-75
2023/11/06 07:31:00;;;;;;;21.80;5.20;;;;;;;10.86;83.18;98394.94;130515;1261;106923;-75
2023/11/06 07:34:06;;;;;;;17.20;3.80;;;;;;;10.78;83.20;98398.41;130508;1271;108435;-75
2023/11/06 07:37:12;;;;;;;6.60;2.30;;;;;;;10.75;83.60;98408.41;130462;1260;106606;-73
2023/11/06 07:40:17;;;;;;;12.60;6.40;;;;;;;10.74;83.12;98407.00;130378;1261;108685;-73
2023/11/06 07:43:23;;;;;;;9.40;3.70;;;;;;;10.75;83.38;98410.50;130627;1264;106601;-74
2023/11/06 07:46:29;;;;;;;12.40;4.30;;;;;;;10.79;83.08;98417.98;130515;1262;108469;-74
2023/11/06 07:49:34;;;;;;;10.00;3.50;;;;;;;10.83;82.94;98428.50;130553;1271;108302;-74
2023/11/06 07:52:40;;;;;;;8.50;2.60;;;;;;;10.86;82.42;98432.46;130456;1263;107699;-73
2023/11/06 07:55:47;;;;;;;4.80;1.70;;;;;;;10.87;82.48;98436.96;130483;1263;108459;-74
2023/11/06 07:58:53;;;;;;;11.80;3.70;;;;;;;10.87;82.41;98444.58;130503;1256;107591;-73
2023/11/06 08:01:59;;;;;;;8.20;2.80;;;;;;;10.87;82.86;98446.90;130464;1263;106621;-74
2023/11/06 08:05:05;;;;;;;5.80;1.80;;;;;;;10.86;82.84;98459.52;130461;1260;107894;-73
2023/11/06 08:08:10;;;;;;;6.00;1.70;;;;;;;10.87;82.79;98460.95;130466;1267;106770;-74
2023/11/06 08:11:18;;;;;;;8.50;4.50;;;;;;;10.92;83.33;98466.84;130551;1263;107646;-73
2023/11/06 08:14:24;;;;;;;8.30;6.60;;;;;;;10.99;83.05;98474.17;130478;1270;106841;-74
2023/11/06 08:17:29;;;;;;;5.40;3.90;;;;;;;11.06;83.11;98482.30;130512;1263;108808;-74
2023/11/06 08:20:36;;;;;;;28.90;14.20;;;;;;;11.10;83.19;98491.76;130520;1260;106420;-74
2023/11/06 08:23:44;;;;;;;27.80;12.90;;;;;;;11.09;82.96;98493.52;130519;1270;107669;-75
2023/11/06 08:26:52;;;;;;;6.20;3.00;;;;;;;11.05;83.22;98498.79;130458;1261;109066;-74
2023/11/06 08:29:57;;;;;;;9.90;4.60;;;;;;;11.03;83.36;98502.84;130504;1271;107863;-74
2023/11/06 08:33:03;;;;;;;17.90;8.80;;;;;;;11.01;83.54;98501.65;130461;1270;107786;-73
2023/11/06 08:36:11;;;;;;;12.00;7.10;;;;;;;11.03;83.46;98514.27;130363;1262;107720;-73
2023/11/06 08:39:17;;;;;;;18.90;9.10;;;;;;;11.06;83.20;98512.42;130487;1263;108705;-73
2023/11/06 08:42:23;;;;;;;15.60;6.70;;;;;;;11.11;82.69;98516.05;130510;1258;107356;-73
2023/11/06 08:45:28;;;;;;;9.40;3.00;;;;;;;11.21;82.72;98524.19;130472;1264;106464;-73
2023/11/06 08:48:34;;;;;;;13.80;7.70;;;;;;;11.32;82.33;98525.96;130441;1260;107179;-73
2023/11/06 08:51:40;;;;;;;14.80;7.00;;;;;;;11.42;80.89;98535.11;130457;1261;108494;-73
2023/11/06 08:54:46;;;;;;;17.00;8.50;;;;;;;11.53;81.05;98535.48;130413;1263;107173;-73
2023/11/06 08:57:52;;;;;;;16.70;7.20;;;;;;;11.62;80.94;98542.11;130586;1257;108745;-73
2023/11/06 09:01:00;;;;;;;8.50;3.50;;;;;;;11.66;80.63;98551.27;130462;1270;107776;-74
2023/11/06 09:04:07;;;;;;;7.50;2.30;;;;;;;11.67;79.90;98555.23;130526;1270;108515;-73
2023/11/06 09:07:14;;;;;;;6.20;2.20;;;;;;;11.67;79.80;98562.50;130463;1260;107748;-74
2023/11/06 09:10:19;;;;;;;7.10;2.70;;;;;;;11.68;79.68;98572.17;130552;1263;106612;-74
2023/11/06 09:13:27;;;;;;;6.30;2.80;;;;;;;11.64;79.77;98572.66;130436;1261;107814;-74
2023/11/06 09:16:36;;;;;;;9.50;3.90;;;;;;;11.63;79.18;98580.86;130497;1262;107652;-74
2023/11/06 09:19:41;;;;;;;9.50;3.30;;;;;;;11.60;78.46;98575.52;130548;1261;107031;-76
2023/11/06 09:22:47;;;;;;;12.70;3.90;;;;;;;11.62;79.00;98585.60;130422;1270;106835;-74
2023/11/06 09:25:54;;;;;;;10.50;4.90;;;;;;;11.67;78.68;98593.25;130441;1262;108569;-74
2023/11/06 09:29:01;;;;;;;8.80;2.50;;;;;;;11.75;78.89;98596.48;130523;1263;108657;-76
2023/11/06 09:32:07;;;;;;;10.00;2.90;;;;;;;11.86;78.89;98596.85;130580;1257;106926;-75
2023/11/06 09:35:13;;;;;;;5.60;2.30;;;;;;;11.99;78.06;98600.55;130612;1270;108363;-75
2023/11/06 09:38:18;;;;;;;4.40;1.20;;;;;;;12.08;77.79;98609.70;130465;1264;108478;-75
2023/11/06 09:41:25;;;;;;;4.70;1.60;;;;;;;12.20;77.77;98606.92;130484;1261;106903;-75
2023/11/06 09:44:30;;;;;;;7.90;2.30;;;;;;;12.22;77.17;98613.38;130481;1258;106922;-75
2023/11/06 09:47:44;;;;;;;7.70;2.30;;;;;;;12.24;77.01;98617.54;130485;1257;108649;-75
2023/11/06 09:50:56;;;;;;;7.20;2.20;;;;;;;12.24;75.90;98623.98;130547;1261;107795;-75
2023/11/06 09:54:11;;;;;;;5.10;1.70;;;;;;;12.20;74.60;98633.20;130603;1260;107171;-75
2023/11/06 09:57:20;;;;;;;8.40;2.80;;;;;;;12.16;75.44;98637.48;130398;1261;107796;-74
2023/11/06 10:00:26;;;;;;;4.60;1.30;;;;;;;12.17;75.04;98638.34;130450;1258;108661;-74
2023/11/06 10:03:32;;;;;;;6.50;2.10;;;;;;;12.16;75.43;98637.66;130552;1261;106961;-73
2023/11/06 10:06:38;;;;;;;8.10;2.00;;;;;;;12.14;75.38;98650.60;130498;1261;106718;-73
2023/11/06 10:09:44;;;;;;;5.00;1.50;;;;;;;12.14;74.84;98652.74;130476;1260;108597;-73
2023/11/06 10:13:03;;;;;;;6.50;2.00;;;;;;;12.15;75.35;98652.01;130461;1270;107825;-74
2023/11/06 10:16:22;;;;;;;4.00;1.50;;;;;;;12.21;75.79;98652.50;130516;1260;107623;-75
2023/11/06 10:19:29;;;;;;;2.70;1.50;;;;;;;12.27;75.43;98654.93;130519;1262;106814;-74
2023/11/06 10:22:35;;;;;;;1.80;1.10;;;;;;;12.27;75.11;98658.27;130461;1260;106606;-77
2023/11/06 10:25:42;;;;;;;3.00;1.40;;;;;;;12.28;74.69;98663.45;130515;1257;107413;-72
2023/11/06 10:28:47;;;;;;;4.00;1.90;;;;;;;12.29;74.57;98665.56;130452;1260;106625;-73
2023/11/06 10:31:53;;;;;;;3.90;1.00;;;;;;;12.29;73.89;98668.56;130253;1257;106349;-74
2023/11/06 10:35:02;;;;;;;2.60;1.20;;;;;;;12.34;74.78;98676.96;130381;1261;107800;-73
2023/11/06 10:38:08;;;;;;;2.30;1.20;;;;;;;12.45;74.67;98681.80;130473;1257;108673;-73
2023/11/06 10:41:25;;;;;;;2.30;1.10;;;;;;;12.56;74.62;98682.88;130450;1257;109215;-73
2023/11/06 10:44:32;;;;;;;2.80;1.30;;;;;;;12.71;74.66;98687.79;130157;1258;404501;-73
2023/11/06 10:47:43;;;;;;;1.80;1.00;;;;;;;12.87;74.50;98691.95;130464;1270;107812;-73
2023/11/06 10:50:49;;;;;;;3.80;1.60;;;;;;;13.02;74.72;98696.73;130432;1261;106604;-73
2023/11/06 10:53:55;;;;;;;2.40;1.00;;;;;;;13.13;74.10;98702.73;130432;1261;108367;-73
2023/11/06 10:57:02;;;;;;;3.50;1.70;;;;;;;13.24;74.12;98707.49;130400;1258;107036;-73
2023/11/06 11:00:11;;;;;;;3.00;1.30;;;;;;;13.30;73.95;98706.27;130419;1260;108583;-74
2023/11/06 11:03:17;;;;;;;3.00;1.40;;;;;;;13.33;72.28;98707.88;130442;1260;106747;-73
2023/11/06 11:06:24;;;;;;;4.10;1.80;;;;;;;13.31;72.96;98710.68;130466;1261;106444;-73
2023/11/06 11:09:31;;;;;;;3.80;1.50;;;;;;;13.33;71.76;98714.97;130455;1260;108773;-72
2023/11/06 11:12:37;;;;;;;2.90;1.20;;;;;;;13.27;72.03;98719.52;130381;1261;107842;-73
2023/11/06 11:15:43;;;;;;;4.20;1.20;;;;;;;13.21;72.16;98730.36;130471;1261;107104;-73
2023/11/06 11:18:50;;;;;;;3.20;0.90;;;;;;;13.12;72.34;98730.38;130433;1261;107841;-72
2023/11/06 11:22:05;;;;;;;3.40;1.10;;;;;;;13.05;71.92;98732.03;130445;1270;105912;-72
2023/11/06 11:25:10;;;;;;;3.40;1.00;;;;;;;13.00;72.40;98740.34;130443;1260;107911;-74
2023/11/06 11:28:16;;;;;;;2.20;1.00;;;;;;;12.94;72.55;98752.17;130441;1261;108765;-74
2023/11/06 11:31:39;;;;;;;2.60;1.10;;;;;;;12.84;73.15;98755.63;130442;1260;107083;-72
2023/11/06 11:34:45;;;;;;;3.20;1.10;;;;;;;12.76;73.65;98757.27;130917;1260;106630;-73
2023/11/06 11:37:57;;;;;;;1.90;0.90;;;;;;;12.74;74.00;98761.05;130454;1260;106510;-73
2023/11/06 11:41:11;;;;;;;1.90;1.00;;;;;;;12.83;73.74;98762.23;130448;1261;108333;-71
2023/11/06 11:44:17;;;;;;;3.50;1.20;;;;;;;12.88;72.77;98758.62;130432;1257;107681;-72
2023/11/06 11:47:23;;;;;;;1.60;0.80;;;;;;;12.92;72.46;98758.02;130426;1258;107279;-73
2023/11/06 11:50:44;;;;;;;1.80;1.00;;;;;;;12.98;72.09;98756.70;130415;1261;107939;-71
2023/11/06 11:53:49;;;;;;;3.30;1.00;;;;;;;13.07;72.32;98755.63;130355;1261;106885;-71
2023/11/06 11:56:55;;;;;;;3.40;0.80;;;;;;;13.17;71.98;98757.56;130440;1270;108346;-71
2023/11/06 12:00:03;;;;;;;1.90;0.80;;;;;;;13.21;71.16;98756.08;130445;1260;106565;-70
2023/11/06 12:03:11;;;;;;;2.20;1.00;;;;;;;13.25;70.96;98762.70;130300;1261;107453;-70
2023/11/06 12:06:16;;;;;;;2.20;0.90;;;;;;;13.30;70.05;98767.88;130322;1270;107582;-71
2023/11/06 12:09:22;;;;;;;2.60;1.00;;;;;;;13.37;70.18;98771.80;130392;1260;108659;-71
2023/11/06 12:12:29;;;;;;;2.20;1.00;;;;;;;13.35;69.78;98770.15;130439;1261;105773;-71
2023/11/06 12:15:35;;;;;;;2.50;0.90;;;;;;;13.30;70.51;98774.64;130485;1260;106605;-71
2023/11/06 12:18:46;;;;;;;12.20;8.00;;;;;;;13.30;69.30;98784.65;130511;1261;107044;-71
2023/11/06 12:22:02;;;;;;;3.10;1.70;;;;;;;13.30;70.10;98787.38;130388;1260;107696;-71
2023/11/06 12:25:09;;;;;;;2.60;1.40;;;;;;;13.26;70.36;98794.85;130501;1260;106888;-71
2023/11/06 12:28:15;;;;;;;4.80;1.90;;;;;;;13.24;70.38;98795.42;130467;1260;107413;-71
2023/11/06 12:31:23;;;;;;;8.20;3.00;;;;;;;13.29;70.48;98805.34;130424;1260;107711;-71
2023/11/06 12:34:29;;;;;;;7.00;2.60;;;;;;;13.33;70.49;98808.19;130472;1257;108479;-71
2023/11/06 12:37:48;;;;;;;5.00;1.90;;;;;;;13.34;70.12;98809.39;130457;1260;106561;-71
2023/11/06 12:40:54;;;;;;;4.60;1.60;;;;;;;13.27;69.61;98812.95;130430;1260;106959;-71
2023/11/06 12:44:02;;;;;;;2.50;0.90;;;;;;;13.26;69.23;98815.62;130453;1262;108687;-71
2023/11/06 12:47:09;;;;;;;6.10;2.50;;;;;;;13.28;69.31;98824.65;130404;1257;107714;-71
2023/11/06 12:50:19;;;;;;;5.60;1.80;;;;;;;13.30;69.80;98820.59;130478;1260;107569;-71
2023/11/06 12:53:25;;;;;;;11.90;3.50;;;;;;;13.28;69.33;98827.57;130409;1256;106614;-71
2023/11/06 12:56:30;;;;;;;10.10;3.00;;;;;;;13.25;69.51;98830.75;130419;1260;107682;-70
2023/11/06 12:59:36;;;;;;;12.10;4.60;;;;;;;13.22;69.28;98833.96;130414;1260;107411;-73
2023/11/06 13:02:46;;;;;;;12.10;7.10;;;;;;;13.24;69.61;98840.84;130416;1261;108696;-73
2023/11/06 13:05:52;;;;;;;70.80;38.80;;;;;;;13.30;69.95;98846.14;130457;1261;106704;-73
2023/11/06 13:08:58;;;;;;;82.50;46.90;;;;;;;13.35;69.71;98840.67;130480;1260;107611;-73
2023/11/06 13:12:05;;;;;;;50.00;31.10;;;;;;;13.38;69.47;98853.38;130428;1262;107192;-72
2023/11/06 13:15:11;;;;;;;105.50;54.90;;;;;;;13.37;69.99;98869.20;130417;1260;106953;-71
2023/11/06 13:18:18;;;;;;;88.80;47.60;;;;;;;13.34;69.99;98876.60;130396;1260;107687;-72
2023/11/06 13:21:25;;;;;;;113.80;68.20;;;;;;;13.28;70.02;98881.54;130472;1261;106954;-72
2023/11/06 13:24:31;;;;;;;93.00;45.00;;;;;;;13.22;70.26;98883.61;130447;1260;106913;-71
2023/11/06 13:27:37;;;;;;;21.60;10.80;;;;;;;13.16;70.31;98886.41;130268;1261;107826;-71
2023/11/06 13:30:43;;;;;;;274.40;128.70;;;;;;;13.08;70.76;98891.59;130279;1261;107709;-71
2023/11/06 13:33:49;;;;;;;293.10;137.10;;;;;;;13.03;70.71;98899.73;130414;1260;106690;-70
2023/11/06 13:36:56;;;;;;;140.60;61.80;;;;;;;12.97;71.04;98898.31;130418;1260;107689;-72
2023/11/06 13:40:13;;;;;;;377.30;157.50;;;;;;;12.93;71.07;98905.55;130431;1261;107571;-71
2023/11/06 13:43:21;;;;;;;155.90;59.10;;;;;;;12.87;71.21;98912.11;130391;1261;107607;-71
2023/11/06 13:46:26;;;;;;;738.60;363.60;;;;;;;12.78;71.15;98917.77;130494;1257;107625;-72
2023/11/06 13:49:33;;;;;;;723.10;306.90;;;;;;;12.68;71.43;98916.75;130441;1258;106476;-71
2023/11/06 13:52:42;;;;;;;332.80;127.10;;;;;;;12.61;71.67;98925.20;130401;1257;107204;-71
2023/11/06 13:55:49;;;;;;;509.50;218.40;;;;;;;12.52;71.76;98921.16;130463;1261;107455;-71
2023/11/06 13:58:55;;;;;;;667.90;271.40;;;;;;;12.43;71.93;98925.86;130403;1272;108710;-71
2023/11/06 14:02:05;;;;;;;336.00;110.80;;;;;;;12.36;72.08;98932.11;130368;1256;107636;-71
2023/11/06 14:05:13;;;;;;;314.20;119.50;;;;;;;12.34;72.20;98938.43;130409;1260;107740;-71
2023/11/06 14:08:21;;;;;;;711.20;309.30;;;;;;;12.34;72.23;98942.02;130413;1260;107286;-71
2023/11/06 14:11:27;;;;;;;450.00;156.90;;;;;;;12.34;72.28;98943.61;130460;1260;108089;-71